createdAt,value
2022-11-14T05:45:02.714Z,0.1
2022-11-14T05:47:01.125Z,0.2
2022-11-14T05:48:01.102Z,0.3
2022-11-14T05:50:01.314Z,0.4
2022-11-14T05:51:01.122Z,0.5
2022-11-14T05:53:01.232Z,0.6
2022-11-14T05:54:01.121Z,0.7
2022-11-14T05:56:01.326Z,0.8
2022-11-14T05:57:01.107Z,0.9
2022-11-14T05:58:01.105Z,1.1
2022-11-14T05:59:01.113Z,1.2
2022-11-14T06:00:01.108Z,1.3
2022-11-14T06:01:02.404Z,1.5
2022-11-14T06:02:01.193Z,1.7
2022-11-14T06:03:01.105Z,1.9
2022-11-14T06:04:01.109Z,2.1
2022-11-14T06:05:01.111Z,2.3
2022-11-14T06:06:01.329Z,2.6
2022-11-14T06:07:01.147Z,3.0
2022-11-14T06:08:02.140Z,3.4
2022-11-14T06:09:01.112Z,3.8
2022-11-14T06:10:01.106Z,4.5
2022-11-14T06:11:01.339Z,5.1
2022-11-14T06:12:01.114Z,6.1
2022-11-14T06:13:01.119Z,7.0
2022-11-14T06:14:03.883Z,7.9
2022-11-14T06:15:01.114Z,9.3
2022-11-14T06:16:02.293Z,10.7
2022-11-14T06:17:01.137Z,12.7
2022-11-14T06:18:01.113Z,14.6
2022-11-14T06:19:01.115Z,16.5
2022-11-14T06:20:01.397Z,19.5
2022-11-14T06:21:01.324Z,22.4
2022-11-14T06:22:01.117Z,26.5
2022-11-14T06:23:01.115Z,30.7
2022-11-14T06:24:01.115Z,34.8
2022-11-14T06:25:01.113Z,40.9
2022-11-14T06:26:01.327Z,46.9
2022-11-14T06:27:01.110Z,56.3
2022-11-14T06:28:01.122Z,65.7
2022-11-14T06:29:01.117Z,75.1
2022-11-14T06:30:01.244Z,90.1
2022-11-14T06:31:01.968Z,105.1
2022-11-14T06:32:01.125Z,124.9
2022-11-14T06:33:01.134Z,144.7
2022-11-14T06:35:01.101Z,172.1
2022-11-14T06:36:01.924Z,198.3
2022-11-14T06:37:01.101Z,239.1
2022-11-14T06:38:01.107Z,278.6
2022-11-14T06:39:01.155Z,318.1
2022-11-14T06:40:01.096Z,375.1
2022-11-14T06:41:01.336Z,430.0
2022-11-14T06:42:01.105Z,484.5
2022-11-14T06:43:01.107Z,535.3
2022-11-14T06:44:01.108Z,586.1
2022-11-14T06:45:01.114Z,643.3
2022-11-14T06:46:01.317Z,694.5
2022-11-14T06:47:01.149Z,747.3
2022-11-14T06:48:01.104Z,794.7
2022-11-14T06:49:01.167Z,842.1
2022-11-14T06:50:01.404Z,903.0
2022-11-14T06:51:01.874Z,963.9
2022-11-14T06:52:01.166Z,1022.6
2022-11-14T06:53:01.105Z,1081.3
2022-11-14T06:54:01.102Z,1139.9
2022-11-14T06:55:01.109Z,1219.6
2022-11-14T06:56:01.776Z,1299.3
2022-11-14T06:57:01.108Z,1410.5
2022-11-14T06:58:01.135Z,1521.8
2022-11-14T06:59:01.107Z,1633.1
2022-11-14T07:00:01.101Z,1753.0
2022-11-14T07:01:16.124Z,1872.9
2022-11-14T07:02:01.584Z,2029.3
2022-11-14T07:03:01.226Z,2185.6
2022-11-14T07:04:01.245Z,2341.9
2022-11-14T07:05:01.133Z,2511.3
2022-11-14T07:06:01.883Z,2680.6
2022-11-14T07:27:00.364Z,6877.0
2022-11-14T07:28:00.335Z,6856.0
2022-11-14T07:29:02.341Z,6843.4
2022-11-14T07:31:00.323Z,6781.9
2022-11-14T07:32:00.328Z,6751.5
2022-11-14T07:33:00.322Z,6727.9
2022-11-14T07:34:00.391Z,6709.0
2022-11-14T07:35:02.237Z,6705.0
2022-11-14T07:36:00.326Z,6701.7
2022-11-14T07:37:00.327Z,6698.8
2022-11-14T07:38:00.377Z,6898.5
2022-11-14T07:39:00.323Z,7071.5
2022-11-14T07:40:00.598Z,7185.7
2022-11-14T07:41:00.515Z,7299.9
2022-11-14T07:42:00.326Z,7422.5
2022-11-14T07:43:00.399Z,7770.5
2022-11-14T07:44:00.326Z,8118.4
2022-11-14T07:46:00.340Z,8966.1
2022-11-14T07:47:00.331Z,9395.9
2022-11-14T07:48:00.330Z,10055.3
2022-11-14T07:49:00.333Z,10714.6
2022-11-14T07:50:00.787Z,11211.3
2022-11-14T07:51:00.332Z,11708.1
2022-11-14T07:52:00.334Z,12204.8
2022-11-14T07:53:00.434Z,12553.5
2022-11-14T07:54:00.331Z,12902.3
2022-11-14T07:55:00.587Z,13320.9
2022-11-14T07:56:00.383Z,13739.6
2022-11-14T07:57:00.355Z,14158.3
2022-11-14T07:58:00.339Z,14455.3
2022-11-14T07:59:00.340Z,14752.4
2022-11-14T08:01:00.414Z,15392.3
2022-11-14T08:02:00.517Z,15712.2
2022-11-14T08:03:00.340Z,15827.9
2022-11-14T08:04:00.337Z,15943.7
2022-11-14T08:06:00.326Z,16304.7
2022-11-14T08:07:00.560Z,16485.3
2022-11-14T08:08:00.872Z,16631.3
2022-11-14T08:09:00.355Z,16777.4
2022-11-14T08:10:15.407Z,16993.4
2022-11-14T08:11:01.121Z,17209.4
2022-11-14T08:12:00.538Z,17425.4
2022-11-14T08:13:25.116Z,17849.5
2022-11-14T08:14:00.335Z,18273.7
2022-11-14T08:15:00.949Z,18907.2
2022-11-14T08:16:00.699Z,19540.7
2022-11-14T08:17:00.354Z,20174.3
2022-11-14T08:18:00.419Z,20615.5
2022-11-14T08:19:00.416Z,21056.7
2022-11-14T08:20:00.816Z,21401.2
2022-11-14T08:21:00.828Z,21745.7
2022-11-14T08:22:00.421Z,22090.3
2022-11-14T08:23:00.358Z,22305.5
2022-11-14T08:24:00.355Z,22520.8
2022-11-14T08:25:00.432Z,22697.2
2022-11-14T08:26:00.691Z,22873.6
2022-11-14T08:27:00.360Z,23050.0
2022-11-14T08:28:00.360Z,22827.4
2022-11-14T08:29:00.394Z,22604.8
2022-11-14T08:31:00.574Z,21221.7
2022-11-14T08:32:00.442Z,20530.2
2022-11-14T08:33:00.644Z,19900.9
2022-11-14T08:34:00.634Z,19271.7
2022-11-14T08:36:00.560Z,18162.2
2022-11-14T08:37:00.354Z,17607.5
2022-11-14T08:38:00.363Z,17248.3
2022-11-14T08:39:01.945Z,16889.1
2022-11-14T08:40:00.555Z,16454.1
2022-11-14T08:41:00.578Z,16019.2
2022-11-14T08:42:00.440Z,15584.3
2022-11-14T08:43:00.370Z,15427.0
2022-11-14T08:44:00.363Z,15269.7
2022-11-14T08:45:01.069Z,15710.0
2022-11-14T08:46:01.686Z,16150.3
2022-11-14T08:47:00.413Z,16590.5
2022-11-14T08:48:00.377Z,17380.8
2022-11-14T08:49:00.380Z,18171.1
2022-11-14T08:50:01.264Z,19006.1
2022-11-14T08:51:00.576Z,19841.2
2022-11-14T08:52:01.391Z,20676.3
2022-11-14T08:53:00.365Z,21529.2
2022-11-14T08:54:00.370Z,22382.1
2022-11-14T08:56:00.602Z,24526.4
2022-11-14T08:57:00.363Z,25598.5
2022-11-14T08:58:00.378Z,26627.1
2022-11-14T08:59:00.377Z,27655.6
2022-11-14T09:01:05.412Z,29029.1
2022-11-14T09:02:00.406Z,29715.8
2022-11-14T09:03:00.399Z,30251.7
2022-11-14T09:04:00.546Z,30787.7
2022-11-14T09:05:00.518Z,31267.1
2022-11-14T09:06:00.698Z,31746.5
2022-11-14T09:07:00.424Z,32225.9
2022-11-14T09:08:00.368Z,32633.5
2022-11-14T09:09:00.373Z,33041.1
2022-11-14T09:11:04.771Z,33329.3
2022-11-14T09:12:00.371Z,33473.5
2022-11-14T09:13:00.362Z,33472.6
2022-11-14T09:14:00.374Z,33471.7
2022-11-14T09:15:01.567Z,33289.4
2022-11-14T09:16:00.601Z,33107.1
2022-11-14T09:17:04.673Z,32924.7
2022-11-14T09:18:00.377Z,32706.1
2022-11-14T09:19:00.380Z,32487.4
2022-11-14T09:20:00.409Z,32562.5
2022-11-14T09:21:00.586Z,32637.7
2022-11-14T09:22:00.372Z,32712.8
2022-11-14T09:23:00.362Z,32855.1
2022-11-14T09:24:01.751Z,32997.5
2022-11-14T09:25:05.559Z,33371.3
2022-11-14T09:26:00.580Z,33745.2
2022-11-14T09:27:00.451Z,34119.1
2022-11-14T09:28:00.373Z,34542.0
2022-11-14T09:29:00.381Z,34964.9
2022-11-14T09:31:00.647Z,36114.0
2022-11-14T09:32:00.374Z,36688.5
2022-11-14T09:33:00.396Z,37088.9
2022-11-14T09:34:00.376Z,37489.2
2022-11-14T09:35:00.458Z,37872.7
2022-11-14T09:36:00.716Z,38256.1
2022-11-14T09:37:00.376Z,38639.6
2022-11-14T09:38:00.378Z,39155.9
2022-11-14T09:39:00.390Z,39672.1
2022-11-14T09:40:00.424Z,39783.3
2022-11-14T09:41:00.593Z,39894.5
2022-11-14T09:42:00.633Z,40005.7
2022-11-14T09:43:00.375Z,39520.5
2022-11-14T09:44:00.372Z,39035.3
2022-11-14T09:45:01.059Z,38640.1
2022-11-14T09:46:00.591Z,38244.8
2022-11-14T09:47:00.375Z,37849.5
2022-11-14T09:48:00.377Z,38049.5
2022-11-14T09:49:00.399Z,38249.4
2022-11-14T09:50:00.639Z,38194.1
2022-11-14T09:51:01.929Z,38138.7
2022-11-14T09:52:00.378Z,38083.4
2022-11-14T09:53:00.419Z,37901.9
2022-11-14T09:54:00.377Z,37720.5
2022-11-14T09:55:05.441Z,37885.3
2022-11-14T09:56:00.599Z,38050.2
2022-11-14T09:57:00.385Z,38215.1
2022-11-14T09:58:00.389Z,38835.6
2022-11-14T09:59:00.402Z,39456.1
2022-11-14T10:01:03.808Z,40931.7
2022-11-14T10:02:00.671Z,41669.5
2022-11-14T10:03:00.398Z,42238.7
2022-11-14T10:04:00.388Z,42807.9
2022-11-14T10:05:00.463Z,43662.9
2022-11-14T10:06:00.595Z,44517.8
2022-11-14T10:07:00.457Z,45372.7
2022-11-14T10:08:00.383Z,46083.6
2022-11-14T10:09:00.387Z,46794.5
2022-11-14T10:10:00.439Z,47267.5
2022-11-14T10:11:00.594Z,47740.5
2022-11-14T10:12:00.388Z,48213.5
2022-11-14T10:13:00.390Z,48886.3
2022-11-14T10:14:00.387Z,49559.2
2022-11-14T10:15:00.982Z,50245.8
2022-11-14T10:16:00.626Z,50932.4
2022-11-14T10:17:00.386Z,51619.0
2022-11-14T10:18:00.379Z,51892.6
2022-11-14T10:19:00.383Z,52166.2
2022-11-14T10:20:00.417Z,51967.1
2022-11-14T10:21:00.691Z,51767.9
2022-11-14T10:22:00.394Z,51568.8
2022-11-14T10:23:01.661Z,51217.4
2022-11-14T10:24:00.387Z,50866.0
2022-11-14T10:25:00.438Z,50956.6
2022-11-14T10:26:00.677Z,51047.2
2022-11-14T10:27:00.383Z,51137.8
2022-11-14T10:28:04.960Z,50633.4
2022-11-14T10:29:00.397Z,50129.0
2022-11-14T10:31:00.594Z,48502.9
2022-11-14T10:32:00.397Z,47689.8
2022-11-14T10:33:00.394Z,46986.7
2022-11-14T10:34:00.392Z,46283.5
2022-11-14T10:35:00.438Z,46183.2
2022-11-14T10:36:00.612Z,46082.9
2022-11-14T10:37:00.430Z,45982.5
2022-11-14T10:38:00.489Z,45601.7
2022-11-14T10:39:00.394Z,45220.8
2022-11-14T10:40:00.449Z,44328.4
2022-11-14T10:41:00.597Z,43436.0
2022-11-14T10:42:04.429Z,42543.6
2022-11-14T10:43:00.395Z,42309.3
2022-11-14T10:44:00.396Z,42075.1
2022-11-14T10:45:00.989Z,41678.3
2022-11-14T10:46:00.601Z,41281.6
2022-11-14T10:47:00.397Z,40884.9
2022-11-14T10:48:00.406Z,40958.4
2022-11-14T10:49:00.604Z,41031.9
2022-11-14T10:50:00.743Z,41707.3
2022-11-14T10:51:00.596Z,42382.7
2022-11-14T10:52:00.398Z,43058.1
2022-11-14T10:53:00.427Z,43844.1
2022-11-14T10:54:00.398Z,44630.0
2022-11-14T10:55:00.464Z,46027.9
2022-11-14T10:56:04.901Z,47425.9
2022-11-14T10:57:00.398Z,48823.8
2022-11-14T10:58:00.396Z,50339.7
2022-11-14T10:59:00.406Z,51855.7
2022-11-14T11:01:00.989Z,55575.9
2022-11-14T11:02:00.408Z,57436.1
2022-11-14T11:03:00.402Z,58861.1
2022-11-14T11:04:00.416Z,60286.2
2022-11-14T11:05:00.444Z,60408.3
2022-11-14T11:06:00.613Z,60530.5
2022-11-14T11:07:00.435Z,60652.6
2022-11-14T11:08:10.252Z,61076.7
2022-11-14T11:09:00.489Z,61500.7
2022-11-14T11:10:00.560Z,60998.3
2022-11-14T11:11:05.625Z,60495.8
2022-11-14T11:12:00.475Z,59993.3
2022-11-14T11:13:00.457Z,59285.3
2022-11-14T11:14:00.407Z,58577.2
2022-11-14T11:16:00.635Z,57760.5
2022-11-14T11:17:00.468Z,57352.2
2022-11-14T11:18:00.404Z,56550.3
2022-11-14T11:19:00.411Z,55748.5
2022-11-14T11:20:03.959Z,55116.9
2022-11-14T11:21:00.675Z,54485.3
2022-11-14T11:22:00.417Z,53853.7
2022-11-14T11:23:03.154Z,53335.8
2022-11-14T11:24:00.471Z,52817.9
2022-11-14T11:25:00.490Z,52461.7
2022-11-14T11:26:00.610Z,52105.5
2022-11-14T11:27:00.405Z,51749.3
2022-11-14T11:28:00.405Z,51510.7
2022-11-14T11:29:00.420Z,51272.0
2022-11-14T11:30:01.320Z,50744.6
2022-11-14T11:31:00.610Z,50217.2
2022-11-14T11:32:00.408Z,49689.8
2022-11-14T11:33:00.412Z,49227.9
2022-11-14T11:34:00.408Z,48766.1
2022-11-14T11:35:00.457Z,48893.3
2022-11-14T11:36:00.881Z,49020.5
2022-11-14T11:37:01.447Z,49147.7
2022-11-14T11:38:00.412Z,50124.5
2022-11-14T11:39:00.414Z,51101.3
2022-11-14T11:40:00.459Z,52442.0
2022-11-14T11:41:00.640Z,53782.7
2022-11-14T11:42:09.648Z,55123.5
2022-11-14T12:05:01.382Z,65535.0
2022-11-14T12:15:01.422Z,65535.0
2022-11-14T12:31:00.463Z,65090.5
2022-11-14T12:32:00.413Z,64868.2
2022-11-14T12:33:00.423Z,64816.1
2022-11-14T12:34:00.422Z,64763.9
2022-11-14T12:38:00.623Z,63958.9
2022-11-14T12:39:00.417Z,63153.8
2022-11-14T12:40:00.433Z,62488.4
2022-11-14T12:41:00.413Z,61823.0
2022-11-14T12:42:00.820Z,61157.6
2022-11-14T12:46:00.446Z,61516.1
2022-11-14T12:47:00.450Z,61695.4
2022-11-14T12:48:00.415Z,61747.5
2022-11-14T12:49:00.413Z,61799.7
2022-11-14T12:53:00.487Z,62604.7
2022-11-14T12:54:00.424Z,63409.8
2022-11-14T12:55:02.500Z,64075.2
2022-11-14T12:56:00.424Z,64740.6
2022-11-14T12:57:00.450Z,65406.0
2022-11-14T12:58:00.423Z,64628.3
2022-11-14T12:59:00.422Z,63850.5
2022-11-14T13:00:03.982Z,62370.4
2022-11-14T13:01:00.474Z,60890.3
2022-11-14T13:02:00.535Z,59410.1
2022-11-14T13:03:00.425Z,58351.7
2022-11-14T13:04:00.428Z,57293.3
2022-11-14T13:05:16.285Z,56051.3
2022-11-14T13:06:00.419Z,54809.3
2022-11-14T13:07:00.479Z,53567.3
2022-11-14T13:08:00.429Z,53052.1
2022-11-14T13:09:00.435Z,52536.8
2022-11-14T13:10:00.960Z,51190.2
2022-11-14T13:38:00.731Z,45688.8
2022-11-14T13:39:00.776Z,47226.4
2022-11-14T13:40:00.954Z,47625.0
2022-11-14T13:41:00.735Z,47909.7
2022-11-14T13:42:00.731Z,48123.3
2022-11-14T13:43:00.740Z,47392.4
2022-11-14T13:44:00.763Z,46807.8
2022-11-14T13:45:01.650Z,46998.8
2022-11-14T13:46:00.739Z,47158.0
2022-11-14T13:47:00.746Z,47292.7
2022-11-14T13:48:00.744Z,47716.8
2022-11-14T13:49:01.810Z,48084.3
2022-11-14T13:50:06.001Z,48591.5
2022-11-14T13:51:15.469Z,49098.6
2022-11-14T13:52:00.722Z,49605.7
2022-11-14T13:53:05.806Z,49557.7
2022-11-14T13:54:01.067Z,49509.7
2022-11-14T13:55:00.959Z,49550.8
2022-11-14T13:56:00.750Z,49591.9
2022-11-14T13:57:00.746Z,49632.9
2022-11-14T13:58:00.750Z,50196.1
2022-11-14T13:59:00.808Z,50759.3
2022-11-14T14:01:00.804Z,50938.4
2022-11-14T14:02:00.742Z,51027.9
2022-11-14T14:03:00.783Z,50657.7
2022-11-14T14:04:00.774Z,50287.4
2022-11-14T14:05:00.977Z,49736.9
2022-11-14T14:06:05.226Z,49186.5
2022-11-14T14:07:00.827Z,48636.0
2022-11-14T14:08:00.746Z,47844.3
2022-11-14T14:09:00.779Z,47052.5
2022-11-14T14:10:00.968Z,45933.8
2022-11-14T14:11:00.752Z,44815.1
2022-11-14T14:12:00.745Z,43696.3
2022-11-14T14:13:00.746Z,42763.3
2022-11-14T14:14:00.781Z,41830.2
2022-11-14T14:15:01.540Z,40694.1
2022-11-14T14:16:00.743Z,39557.9
2022-11-14T14:17:00.750Z,38421.8
2022-11-14T14:18:00.755Z,37582.3
2022-11-14T14:19:00.791Z,36742.7
2022-11-14T14:20:05.975Z,35954.6
2022-11-14T14:21:00.754Z,35166.5
2022-11-14T14:22:00.778Z,34378.3
2022-11-14T14:23:00.752Z,33699.6
2022-11-14T14:24:00.783Z,33020.9
2022-11-14T14:25:00.967Z,32661.8
2022-11-14T14:26:00.756Z,32302.7
2022-11-14T14:27:00.758Z,31943.7
2022-11-14T14:28:00.761Z,31071.6
2022-11-14T14:29:04.970Z,30199.5
2022-11-14T14:30:01.600Z,29490.7
2022-11-14T14:31:00.762Z,28781.8
2022-11-14T14:32:00.754Z,28072.9
2022-11-14T14:33:00.753Z,27468.3
2022-11-14T14:34:00.871Z,26863.6
2022-11-14T14:35:06.369Z,26137.9
2022-11-14T14:36:00.767Z,25412.3
2022-11-14T14:37:00.754Z,24686.6
2022-11-14T14:38:00.778Z,23758.4
2022-11-14T14:39:00.784Z,22830.2
2022-11-14T14:40:01.778Z,21935.4
2022-11-14T14:41:00.756Z,21040.6
2022-11-14T14:42:00.752Z,20145.8
2022-11-14T14:43:00.761Z,19656.5
2022-11-14T14:44:00.797Z,19167.1
2022-11-14T14:46:00.761Z,18129.8
2022-11-14T14:47:00.758Z,17611.1
2022-11-14T14:48:00.752Z,16766.3
2022-11-14T14:49:00.851Z,15921.5
2022-11-14T14:50:00.969Z,15409.9
2022-11-14T14:51:00.757Z,14898.3
2022-11-14T14:52:01.054Z,14386.7
2022-11-14T14:53:00.762Z,14059.9
2022-11-14T14:54:00.948Z,13733.1
2022-11-14T14:55:00.983Z,13438.1
2022-11-14T14:56:00.765Z,13143.0
2022-11-14T14:57:00.882Z,12847.9
2022-11-14T14:58:00.772Z,12416.4
2022-11-14T14:59:00.802Z,11984.9
2022-11-14T15:00:04.056Z,11549.1
2022-11-14T15:01:00.813Z,11113.4
2022-11-14T15:02:00.770Z,10677.7
2022-11-14T15:03:00.775Z,10351.7
2022-11-14T15:04:00.794Z,10025.8
2022-11-14T15:05:01.237Z,9690.1
2022-11-14T15:06:00.763Z,9354.5
2022-11-14T15:07:00.798Z,9018.8
2022-11-14T15:08:00.762Z,8674.1
2022-11-14T15:09:00.848Z,8329.3
2022-11-14T15:10:01.439Z,8005.0
2022-11-14T15:11:00.762Z,7680.7
2022-11-14T15:12:00.767Z,7356.3
2022-11-14T15:13:00.764Z,7078.7
2022-11-14T15:14:00.806Z,6801.1
2022-11-14T15:15:01.433Z,6515.4
2022-11-14T15:16:00.764Z,6229.7
2022-11-14T15:17:00.768Z,5943.9
2022-11-14T15:18:00.763Z,5597.9
2022-11-14T15:19:00.795Z,5251.9
2022-11-14T15:20:00.981Z,4974.9
2022-11-14T15:21:00.768Z,4697.9
2022-11-14T15:22:00.763Z,4420.9
2022-11-14T15:23:01.792Z,4130.1
2022-11-14T15:24:00.802Z,3839.2
2022-11-14T15:25:01.890Z,3609.8
2022-11-14T15:26:00.809Z,3380.4
2022-11-14T15:27:05.764Z,3151.0
2022-11-14T15:28:00.813Z,2926.2
2022-11-14T15:29:00.796Z,2701.4
2022-11-14T15:30:01.426Z,2522.9
2022-11-14T15:31:00.784Z,2344.5
2022-11-14T15:32:00.790Z,2166.0
2022-11-14T15:33:00.771Z,2022.2
2022-11-14T15:34:00.806Z,1878.4
2022-11-14T15:35:00.986Z,1747.1
2022-11-14T15:36:01.797Z,1615.7
2022-11-14T15:37:00.771Z,1484.4
2022-11-14T15:38:15.870Z,1381.1
2022-11-14T15:39:01.019Z,1277.7
2022-11-14T15:40:01.270Z,1185.5
2022-11-14T15:41:00.775Z,1093.3
2022-11-14T15:42:01.116Z,1001.1
2022-11-14T15:43:00.778Z,922.7
2022-11-14T15:44:00.805Z,844.2
2022-11-14T15:45:01.627Z,776.5
2022-11-14T15:46:00.775Z,708.9
2022-11-14T15:47:00.774Z,641.2
2022-11-14T15:48:00.841Z,580.9
2022-11-14T15:49:00.819Z,520.5
2022-11-14T15:50:01.186Z,467.3
2022-11-14T15:51:00.950Z,414.1
2022-11-14T15:52:00.854Z,360.9
2022-11-14T15:53:00.778Z,321.0
2022-11-14T15:54:01.041Z,281.1
2022-11-14T15:56:00.777Z,218.7
2022-11-14T15:57:00.851Z,187.5
2022-11-14T15:58:26.364Z,163.9
2022-11-14T15:59:00.835Z,140.4
2022-11-14T16:01:00.835Z,106.0
2022-11-14T16:02:00.848Z,88.8
2022-11-14T16:03:00.782Z,76.6
2022-11-14T16:04:00.816Z,64.4
2022-11-14T16:05:01.229Z,56.0
2022-11-14T16:06:00.783Z,47.6
2022-11-14T16:07:00.850Z,39.2
2022-11-14T16:08:00.782Z,33.6
2022-11-14T16:09:00.815Z,28.0
2022-11-14T16:11:00.780Z,20.4
2022-11-14T16:12:00.782Z,16.6
2022-11-14T16:13:00.850Z,14.3
2022-11-14T16:14:00.858Z,12.1
2022-11-14T16:16:00.789Z,9.1
2022-11-14T16:17:00.787Z,7.7
2022-11-14T16:18:00.785Z,6.7
2022-11-14T16:19:00.813Z,5.7
2022-11-14T16:20:07.711Z,5.0
2022-11-14T16:21:01.189Z,4.3
2022-11-14T16:22:00.785Z,3.7
2022-11-14T16:23:00.782Z,3.2
2022-11-14T16:24:00.811Z,2.7
2022-11-14T16:25:06.003Z,2.5
2022-11-14T16:26:00.786Z,2.2
2022-11-14T16:27:00.785Z,1.9
2022-11-14T16:28:00.781Z,1.7
2022-11-14T16:29:01.103Z,1.4
2022-11-14T16:30:02.414Z,1.2
2022-11-14T16:31:00.789Z,1.0
2022-11-14T16:32:00.783Z,0.8
2022-11-14T16:33:00.782Z,0.7
2022-11-14T16:34:00.804Z,0.5
2022-11-14T16:36:01.068Z,0.4
2022-11-14T16:37:00.795Z,0.3
2022-11-14T16:39:00.915Z,0.2
